Time;durP1;ratioP1;P1;durP2;ratioP2;P2;SDS_P1;SDS_P2;PMS_P1;PMS_P2;Temp;Humidity;BMP_temperature;BMP_pressure;BME280_temperature;BME280_humidity;BME280_pressure;Samples;Min_cycle;Max_cycle;Signal;HPM_P1;HPM_P2
2021/03/31 00:02:15;;;;;;;7.63;6.70;;;16.30;61.00;;;;;;5096952;28;20509;-70
2021/03/31 00:04:41;;;;;;;8.40;6.97;;;16.30;61.00;;;;;;5097538;28;20043;-70
2021/03/31 00:07:08;;;;;;;8.70;7.53;;;16.30;61.00;;;;;;5096685;28;20059;-70
2021/03/31 00:09:34;;;;;;;8.43;7.18;;;16.30;61.00;;;;;;5096758;28;20043;-70
2021/03/31 00:12:00;;;;;;;11.05;7.47;;;16.20;60.90;;;;;;5096846;28;20327;-69
2021/03/31 00:14:26;;;;;;;9.48;7.57;;;16.30;61.00;;;;;;5096780;28;20446;-70
2021/03/31 00:16:51;;;;;;;9.75;8.02;;;16.20;61.00;;;;;;5095955;28;20054;-70
2021/03/31 00:19:18;;;;;;;10.63;7.40;;;16.20;61.00;;;;;;5097136;28;20486;-71
2021/03/31 00:21:44;;;;;;;10.43;7.50;;;16.20;61.00;;;;;;5096634;28;20170;-70
2021/03/31 00:24:10;;;;;;;9.00;7.25;;;16.20;60.90;;;;;;5096614;28;20123;-70
2021/03/31 00:26:36;;;;;;;9.82;6.90;;;16.20;60.90;;;;;;5096049;28;20040;-70
2021/03/31 00:29:02;;;;;;;11.55;7.85;;;16.20;60.90;;;;;;5096612;28;20336;-70
2021/03/31 00:31:28;;;;;;;9.18;6.90;;;16.20;61.00;;;;;;5096338;28;20177;-69
2021/03/31 00:33:54;;;;;;;8.85;7.20;;;16.20;61.10;;;;;;5096096;28;20144;-69
2021/03/31 00:36:20;;;;;;;9.75;7.45;;;16.20;60.80;;;;;;5096390;28;20064;-70
2021/03/31 00:38:46;;;;;;;8.75;7.10;;;16.20;60.80;;;;;;5096320;28;20383;-69
2021/03/31 00:41:12;;;;;;;9.95;7.25;;;16.20;60.90;;;;;;5096846;28;20047;-70
2021/03/31 00:43:38;;;;;;;8.40;7.22;;;16.10;60.80;;;;;;5096106;28;20044;-70
2021/03/31 00:46:03;;;;;;;8.13;7.28;;;16.10;60.80;;;;;;5095824;28;20048;-71
2021/03/31 00:48:29;;;;;;;7.95;7.10;;;16.10;60.80;;;;;;5096118;28;20443;-70
2021/03/31 00:51:00;;;;;;;9.85;7.85;;;16.10;60.70;;;;;;5096430;28;20047;-69
2021/03/31 00:53:43;;;;;;;9.93;7.75;;;16.20;60.70;;;;;;5095945;28;20344;-70
2021/03/31 00:56:09;;;;;;;9.98;7.88;;;16.10;60.30;;;;;;5095793;28;20394;-69
2021/03/31 00:58:36;;;;;;;13.95;9.02;;;16.10;60.60;;;;;;5096377;28;20073;-69
2021/03/31 01:01:02;;;;;;;9.80;7.82;;;16.10;60.50;;;;;;5095926;28;20048;-70
2021/03/31 01:03:28;;;;;;;11.65;8.00;;;16.10;60.70;;;;;;5096122;28;20453;-69
2021/03/31 01:05:54;;;;;;;9.32;7.63;;;16.10;60.60;;;;;;5095069;28;20036;-69
2021/03/31 01:08:20;;;;;;;11.35;8.10;;;16.10;60.70;;;;;;5095452;28;20051;-70
2021/03/31 01:10:50;;;;;;;9.82;8.20;;;16.10;60.70;;;;;;5095414;28;20036;-70
2021/03/31 01:13:50;;;;;;;9.20;8.07;;;16.10;60.60;;;;;;5095563;28;20363;-70
2021/03/31 01:16:32;;;;;;;8.52;7.63;;;16.10;60.40;;;;;;5095969;28;20073;-69
2021/03/31 01:19:35;;;;;;;9.57;8.10;;;16.10;60.00;;;;;;5095579;28;20040;-70
2021/03/31 01:22:33;;;;;;;9.65;7.95;;;16.00;60.90;;;;;;5095522;28;20050;-70
2021/03/31 01:25:56;;;;;;;9.23;7.40;;;16.00;60.40;;;;;;5089700;28;20124;-70
2021/03/31 01:28:35;;;;;;;9.55;7.70;;;16.00;60.20;;;;;;5013761;28;20091;-70
2021/03/31 01:31:44;;;;;;;10.05;7.40;;;16.00;60.50;;;;;;5013624;28;20161;-69
2021/03/31 01:34:47;;;;;;;10.05;7.90;;;16.00;60.40;;;;;;5093563;28;20131;-70
2021/03/31 01:37:19;;;;;;;10.90;8.38;;;16.00;60.30;;;;;;5095316;28;20066;-70
2021/03/31 01:39:46;;;;;;;9.52;7.25;;;15.90;60.20;;;;;;5095135;28;20040;-70
2021/03/31 01:42:14;;;;;;;10.48;8.20;;;16.00;60.60;;;;;;5095233;28;20454;-70
2021/03/31 01:44:42;;;;;;;9.02;7.95;;;15.90;60.50;;;;;;5095122;28;20134;-70
2021/03/31 01:47:12;;;;;;;9.40;7.78;;;15.90;60.50;;;;;;5095183;28;20036;-69
2021/03/31 01:49:39;;;;;;;9.05;7.97;;;16.00;60.50;;;;;;5095407;28;20073;-70
2021/03/31 01:52:07;;;;;;;9.77;7.88;;;16.00;60.50;;;;;;5095342;28;20116;-69
2021/03/31 01:54:34;;;;;;;9.63;7.53;;;15.90;60.40;;;;;;5094781;28;20067;-70
2021/03/31 01:57:00;;;;;;;9.15;7.43;;;15.90;60.40;;;;;;5094958;28;20115;-70
2021/03/31 01:59:28;;;;;;;8.57;7.53;;;15.90;60.40;;;;;;5095583;28;20060;-69
2021/03/31 02:01:55;;;;;;;9.05;7.35;;;16.00;60.40;;;;;;5095056;28;20040;-69
2021/03/31 02:04:23;;;;;;;9.02;8.10;;;15.90;60.40;;;;;;5094860;28;20407;-69
2021/03/31 02:06:50;;;;;;;10.65;7.93;;;15.90;60.40;;;;;;5095091;28;20119;-70
2021/03/31 02:09:17;;;;;;;10.60;7.72;;;15.90;60.40;;;;;;5094798;28;20358;-70
2021/03/31 02:11:45;;;;;;;8.98;7.38;;;15.90;60.40;;;;;;5095382;28;20055;-70
2021/03/31 02:14:21;;;;;;;8.32;6.85;;;15.90;60.30;;;;;;5095030;28;20051;-69
2021/03/31 02:16:49;;;;;;;9.52;7.55;;;15.90;60.20;;;;;;5094904;28;20105;-70
2021/03/31 02:19:19;;;;;;;8.90;7.22;;;15.90;60.40;;;;;;5098139;28;20048;-69
2021/03/31 02:21:47;;;;;;;9.30;7.38;;;15.90;60.30;;;;;;5098884;28;20451;-70
2021/03/31 02:24:16;;;;;;;10.10;7.32;;;15.90;60.40;;;;;;5098866;28;20042;-70
2021/03/31 02:26:42;;;;;;;10.55;7.57;;;15.90;60.40;;;;;;5098625;28;20403;-69
2021/03/31 02:29:09;;;;;;;9.35;7.65;;;15.90;60.40;;;;;;5098673;28;20446;-70
2021/03/31 02:31:36;;;;;;;11.25;7.88;;;15.90;60.40;;;;;;5099044;28;20048;-70
2021/03/31 02:34:04;;;;;;;10.32;7.97;;;15.90;60.40;;;;;;5098622;28;20036;-69
2021/03/31 02:36:31;;;;;;;9.45;8.05;;;15.90;60.20;;;;;;5098650;28;20044;-70
2021/03/31 02:38:59;;;;;;;9.73;8.00;;;15.80;60.20;;;;;;5098396;28;20064;-70
2021/03/31 02:41:26;;;;;;;10.32;8.02;;;15.80;60.30;;;;;;5098349;28;20436;-70
2021/03/31 02:43:53;;;;;;;10.18;7.65;;;15.80;60.30;;;;;;5098425;28;20431;-69
2021/03/31 02:46:23;;;;;;;10.43;7.10;;;15.80;60.20;;;;;;5098194;28;20370;-69
2021/03/31 02:48:51;;;;;;;10.25;7.82;;;15.80;60.10;;;;;;5098427;28;20047;-70
2021/03/31 02:51:19;;;;;;;9.25;7.65;;;15.80;60.20;;;;;;5098333;28;20043;-69
2021/03/31 02:53:46;;;;;;;10.25;8.05;;;15.80;60.20;;;;;;5080427;28;20059;-69
2021/03/31 02:56:13;;;;;;;10.18;7.93;;;15.70;60.20;;;;;;5098332;28;20086;-70
2021/03/31 02:58:42;;;;;;;10.77;7.72;;;15.70;60.20;;;;;;5098189;28;20123;-70
2021/03/31 03:01:07;;;;;;;10.15;7.78;;;15.70;60.20;;;;;;5098782;28;20458;-70
2021/03/31 03:03:35;;;;;;;9.70;7.57;;;15.70;60.10;;;;;;5098698;28;20036;-70
2021/03/31 03:06:04;;;;;;;11.65;7.22;;;15.70;60.20;;;;;;5097896;28;20036;-69
2021/03/31 03:08:31;;;;;;;8.85;7.57;;;15.70;60.10;;;;;;5098324;28;20115;-70
2021/03/31 03:11:01;;;;;;;10.00;8.05;;;15.70;60.10;;;;;;5098340;28;20094;-70
2021/03/31 03:13:28;;;;;;;11.02;7.57;;;15.70;60.00;;;;;;5098340;28;20036;-70
2021/03/31 03:15:58;;;;;;;8.50;7.60;;;15.70;60.10;;;;;;5098023;28;20067;-69
2021/03/31 03:18:24;;;;;;;9.52;7.93;;;15.70;60.00;;;;;;5097913;28;20036;-69
2021/03/31 03:20:52;;;;;;;11.07;8.32;;;15.70;60.10;;;;;;5098412;28;20040;-70
2021/03/31 03:23:19;;;;;;;10.45;7.55;;;15.70;60.00;;;;;;5097775;28;20040;-69
2021/03/31 03:25:48;;;;;;;9.15;8.00;;;15.70;60.00;;;;;;5098352;28;20095;-70
2021/03/31 03:28:21;;;;;;;11.25;8.15;;;15.70;60.00;;;;;;5097445;28;20044;-70
2021/03/31 03:30:48;;;;;;;14.20;8.82;;;15.70;60.00;;;;;;5096852;28;20044;-70
2021/03/31 03:33:15;;;;;;;8.55;7.53;;;15.70;60.00;;;;;;5097858;28;20050;-69
2021/03/31 03:35:42;;;;;;;9.95;8.00;;;15.70;60.00;;;;;;5097672;28;20040;-70
2021/03/31 03:38:08;;;;;;;10.35;7.75;;;15.70;59.90;;;;;;5097606;28;20040;-70
2021/03/31 03:40:35;;;;;;;9.27;8.10;;;15.60;59.90;;;;;;5098157;28;20067;-70
2021/03/31 03:43:01;;;;;;;12.32;8.50;;;15.60;59.80;;;;;;5098086;28;20060;-70
2021/03/31 03:45:30;;;;;;;11.32;8.43;;;15.60;59.80;;;;;;5097902;28;20091;-69
2021/03/31 03:47:57;;;;;;;9.70;8.13;;;15.60;59.90;;;;;;5097114;28;20061;-70
2021/03/31 03:50:23;;;;;;;10.80;8.52;;;15.60;59.90;;;;;;5097294;28;20054;-69
2021/03/31 03:52:51;;;;;;;10.10;8.02;;;15.60;59.90;;;;;;5097263;28;20036;-70
2021/03/31 03:55:22;;;;;;;11.27;8.55;;;15.60;59.80;;;;;;5097338;28;20031;-69
2021/03/31 03:57:48;;;;;;;10.75;8.45;;;15.50;59.60;;;;;;5096983;28;20076;-70
2021/03/31 04:00:17;;;;;;;11.75;8.73;;;15.50;59.70;;;;;;5096996;28;20328;-70
2021/03/31 04:02:43;;;;;;;10.20;8.77;;;15.50;59.70;;;;;;5097182;28;20089;-70
2021/03/31 04:05:09;;;;;;;12.65;9.30;;;15.50;59.80;;;;;;5097516;28;20040;-70
2021/03/31 04:07:35;;;;;;;10.35;8.68;;;15.50;59.70;;;;;;5096755;28;20066;-70
2021/03/31 04:10:02;;;;;;;10.98;8.60;;;15.50;59.70;;;;;;5097500;28;20067;-70
2021/03/31 04:12:29;;;;;;;11.48;8.60;;;15.50;59.80;;;;;;5096682;28;20439;-69
2021/03/31 04:14:56;;;;;;;11.38;8.73;;;15.50;59.80;;;;;;5096793;28;20400;-70
2021/03/31 04:17:23;;;;;;;11.52;8.95;;;15.40;59.80;;;;;;5096793;28;20051;-70
2021/03/31 04:19:50;;;;;;;11.07;8.65;;;15.50;59.80;;;;;;5096718;28;20040;-70
2021/03/31 04:22:16;;;;;;;11.35;9.13;;;15.50;59.80;;;;;;5096558;28;20347;-69
2021/03/31 04:24:42;;;;;;;10.50;8.73;;;15.50;59.70;;;;;;5096620;28;20343;-70
2021/03/31 04:27:13;;;;;;;11.27;9.48;;;15.50;59.70;;;;;;5096124;28;20043;-69
2021/03/31 04:29:44;;;;;;;11.90;9.80;;;15.50;59.70;;;;;;5097009;28;20040;-70
2021/03/31 04:32:14;;;;;;;12.25;9.32;;;15.40;59.60;;;;;;5096606;28;20040;-70
2021/03/31 04:34:40;;;;;;;9.85;8.75;;;15.40;59.70;;;;;;5096632;28;20036;-70
2021/03/31 04:37:06;;;;;;;11.50;9.88;;;15.40;59.70;;;;;;5095766;28;20399;-70
2021/03/31 04:39:32;;;;;;;10.70;9.35;;;15.40;59.80;;;;;;5096299;28;20166;-70
2021/03/31 04:41:58;;;;;;;11.45;8.70;;;15.40;59.70;;;;;;5096672;28;20097;-69
2021/03/31 04:44:24;;;;;;;10.20;8.68;;;15.40;59.60;;;;;;5096595;28;20043;-69
2021/03/31 04:46:50;;;;;;;12.13;9.27;;;15.40;59.70;;;;;;5095833;28;20089;-71
2021/03/31 04:49:16;;;;;;;12.85;9.82;;;15.40;59.50;;;;;;5096016;28;20040;-70
2021/03/31 04:51:42;;;;;;;13.18;10.20;;;15.40;58.80;;;;;;5096032;28;20040;-72
2021/03/31 04:54:08;;;;;;;13.88;10.57;;;15.40;58.10;;;;;;5093370;28;20040;-74
2021/03/31 04:56:33;;;;;;;16.35;11.30;;;15.40;57.60;;;;;;5095776;28;20050;-74
2021/03/31 04:58:59;;;;;;;13.85;11.82;;;15.50;57.20;;;;;;5095850;28;20100;-71
2021/03/31 05:01:25;;;;;;;14.63;11.23;;;15.50;57.00;;;;;;5095635;28;20114;-73
2021/03/31 05:03:51;;;;;;;13.63;10.45;;;15.50;57.30;;;;;;5096693;28;20471;-75
2021/03/31 05:06:17;;;;;;;22.67;12.43;;;15.40;58.20;;;;;;5096041;28;20063;-77
2021/03/31 05:08:43;;;;;;;12.65;9.00;;;15.50;59.60;;;;;;5096208;28;20044;-68
2021/03/31 05:11:08;;;;;;;15.40;9.25;;;15.50;58.40;;;;;;5096603;28;20052;-71
2021/03/31 05:13:34;;;;;;;11.38;8.60;;;15.60;57.90;;;;;;5095867;28;20038;-71
2021/03/31 05:16:00;;;;;;;16.17;8.63;;;15.80;57.90;;;;;;5095604;28;20047;-72
2021/03/31 05:18:26;;;;;;;16.75;8.05;;;15.90;58.00;;;;;;5076073;28;20125;-71
2021/03/31 05:20:52;;;;;;;14.32;9.13;;;16.10;58.20;;;;;;5086927;28;20052;-73
2021/03/31 05:23:18;;;;;;;14.52;8.00;;;16.30;57.70;;;;;;5095521;28;20540;-71
2021/03/31 05:25:44;;;;;;;9.48;6.45;;;16.40;57.90;;;;;;5095607;28;20040;-73
2021/03/31 05:28:09;;;;;;;10.10;6.82;;;16.60;58.00;;;;;;5095221;28;20062;-73
2021/03/31 05:30:35;;;;;;;8.88;6.43;;;16.40;57.00;;;;;;5077352;28;20109;-71
2021/03/31 05:33:01;;;;;;;11.20;6.78;;;16.50;57.90;;;;;;5095965;28;20043;-74
2021/03/31 05:35:27;;;;;;;16.77;11.43;;;16.50;57.90;;;;;;5095724;28;20083;-70
2021/03/31 05:37:53;;;;;;;11.38;7.47;;;16.50;55.10;;;;;;5095919;28;20423;-72
2021/03/31 05:40:19;;;;;;;15.38;8.25;;;16.20;55.70;;;;;;5095708;28;20036;-71
2021/03/31 05:42:45;;;;;;;23.75;8.68;;;16.30;58.10;;;;;;5094913;28;20048;-72
2021/03/31 05:45:12;;;;;;;25.52;7.97;;;16.40;59.00;;;;;;5094563;28;20056;-72
2021/03/31 05:47:45;;;;;;;13.95;6.75;;;16.50;59.50;;;;;;5095808;28;20499;-71
2021/03/31 05:50:14;;;;;;;17.02;6.05;;;16.60;59.60;;;;;;5095535;28;20389;-74
2021/03/31 05:52:41;;;;;;;22.40;7.60;;;16.80;60.00;;;;;;5094886;28;20061;-73
2021/03/31 05:55:09;;;;;;;9.18;7.18;;;16.80;59.90;;;;;;5094823;28;20040;-72
2021/03/31 05:57:37;;;;;;;15.20;8.15;;;16.80;59.70;;;;;;5091758;28;20143;-72
2021/03/31 06:00:11;;;;;;;16.10;7.53;;;16.90;59.70;;;;;;5094836;28;20040;-72
2021/03/31 06:02:39;;;;;;;14.63;7.57;;;16.90;59.70;;;;;;5095015;28;20040;-74
2021/03/31 06:05:06;;;;;;;12.85;8.13;;;16.90;59.80;;;;;;5094853;28;20105;-72
2021/03/31 06:07:32;;;;;;;23.88;7.75;;;16.90;60.00;;;;;;5094686;28;20068;-72
2021/03/31 06:10:04;;;;;;;19.20;7.45;;;16.80;60.10;;;;;;5094898;28;20040;-72
2021/03/31 06:12:30;;;;;;;21.30;8.27;;;16.80;60.10;;;;;;5094871;28;20447;-72
2021/03/31 06:15:11;;;;;;;19.88;7.70;;;16.80;60.00;;;;;;5095319;28;20047;-71
2021/03/31 06:17:49;;;;;;;14.90;7.20;;;16.70;59.90;;;;;;5094858;28;20123;-71
2021/03/31 06:20:38;;;;;;;16.00;7.65;;;16.70;59.90;;;;;;5095157;28;20044;-71
2021/03/31 06:25:59;;;;;;;19.75;7.28;;;16.70;59.90;;;;;;5070782;28;20123;-71
2021/03/31 06:28:52;;;;;;;18.40;7.82;;;16.60;59.80;;;;;;5095280;28;20044;-71
2021/03/31 06:31:18;;;;;;;12.40;7.17;;;16.60;59.70;;;;;;5057222;28;20524;-71
2021/03/31 06:33:45;;;;;;;16.13;7.32;;;16.60;59.90;;;;;;5095369;28;20040;-75
2021/03/31 06:36:13;;;;;;;12.88;7.70;;;16.50;59.90;;;;;;5095031;28;20036;-70
2021/03/31 06:38:51;;;;;;;18.50;7.00;;;16.50;59.90;;;;;;5095086;28;20048;-71
2021/03/31 06:41:26;;;;;;;13.70;7.35;;;16.50;60.00;;;;;;5094742;28;20066;-69
2021/03/31 06:44:21;;;;;;;17.63;7.90;;;16.50;60.10;;;;;;5095418;28;20105;-69
2021/03/31 06:46:53;;;;;;;16.73;11.48;;;16.50;60.30;;;;;;5094706;28;20068;-69
2021/03/31 06:49:18;;;;;;;24.85;14.98;;;16.40;59.50;;;;;;5094856;28;20043;-69
2021/03/31 06:51:45;;;;;;;23.35;14.10;;;16.40;58.90;;;;;;5094472;28;20047;-69
2021/03/31 06:54:16;;;;;;;25.52;13.60;;;16.50;58.40;;;;;;5095005;28;20046;-69
2021/03/31 06:56:53;;;;;;;21.35;14.10;;;16.40;57.90;;;;;;5094743;28;20036;-70
2021/03/31 06:59:31;;;;;;;23.67;14.05;;;16.40;57.50;;;;;;5094654;28;20036;-70
2021/03/31 07:01:59;;;;;;;22.60;13.98;;;16.40;57.50;;;;;;5094430;28;20358;-69
2021/03/31 07:04:26;;;;;;;19.42;12.15;;;16.40;57.70;;;;;;5095029;28;20114;-69
2021/03/31 07:07:06;;;;;;;19.70;14.95;;;16.30;57.80;;;;;;5098330;28;20123;-69
2021/03/31 07:09:32;;;;;;;20.63;15.45;;;16.40;58.00;;;;;;5094150;28;20439;-69
2021/03/31 07:11:57;;;;;;;20.20;16.33;;;16.40;57.80;;;;;;5098108;28;20054;-69
2021/03/31 07:14:24;;;;;;;21.13;16.30;;;16.40;57.50;;;;;;5097668;28;20115;-69
2021/03/31 07:16:51;;;;;;;24.08;15.93;;;16.40;57.40;;;;;;5097866;28;20040;-69
2021/03/31 07:19:17;;;;;;;26.92;19.63;;;16.40;56.80;;;;;;5097475;28;20455;-70
2021/03/31 07:21:43;;;;;;;25.35;18.45;;;16.40;55.80;;;;;;5098045;28;20044;-69
2021/03/31 07:24:14;;;;;;;27.20;19.90;;;16.40;54.90;;;;;;5098075;28;20425;-69
2021/03/31 07:26:42;;;;;;;27.75;20.30;;;16.50;54.40;;;;;;5097696;28;20106;-69
2021/03/31 07:29:08;;;;;;;26.63;20.40;;;16.40;54.00;;;;;;5097404;28;20048;-70
2021/03/31 07:31:35;;;;;;;26.48;19.42;;;16.40;53.50;;;;;;5097732;28;20346;-69
2021/03/31 07:34:19;;;;;;;30.02;21.20;;;16.40;53.00;;;;;;5097771;28;20035;-68
2021/03/31 07:36:49;;;;;;;25.48;20.52;;;16.40;52.60;;;;;;5097707;28;20055;-69
2021/03/31 07:39:17;;;;;;;27.83;21.05;;;16.40;52.40;;;;;;5097717;28;20062;-69
2021/03/31 07:41:44;;;;;;;27.85;20.67;;;16.40;52.40;;;;;;5097552;28;20047;-70
2021/03/31 07:44:18;;;;;;;28.58;20.83;;;16.40;52.00;;;;;;5097595;28;20040;-70
2021/03/31 07:46:46;;;;;;;28.35;20.65;;;16.40;51.50;;;;;;5097441;28;20051;-68
2021/03/31 07:49:13;;;;;;;28.73;21.85;;;16.40;51.10;;;;;;5097480;28;20043;-68
2021/03/31 07:52:03;;;;;;;30.73;21.08;;;16.40;50.20;;;;;;5097458;28;20431;-68
2021/03/31 07:54:31;;;;;;;29.95;22.23;;;16.30;49.40;;;;;;5097573;28;20044;-67
2021/03/31 07:56:59;;;;;;;34.85;22.15;;;16.30;49.30;;;;;;5097333;28;20040;-69
2021/03/31 07:59:25;;;;;;;33.08;23.77;;;16.30;48.90;;;;;;5097450;28;20058;-67
2021/03/31 08:01:54;;;;;;;32.95;24.83;;;16.20;49.10;;;;;;5096912;28;20365;-69
2021/03/31 08:04:22;;;;;;;36.15;26.98;;;16.30;49.50;;;;;;5097506;28;20043;-68
2021/03/31 08:06:53;;;;;;;33.22;24.63;;;16.30;50.00;;;;;;5097426;28;20066;-68
2021/03/31 08:09:19;;;;;;;31.67;22.98;;;16.30;50.50;;;;;;5097196;28;20036;-68
2021/03/31 08:11:53;;;;;;;31.75;23.75;;;16.30;50.90;;;;;;5096833;28;20048;-67
2021/03/31 08:14:42;;;;;;;31.60;22.77;;;16.30;51.10;;;;;;5096556;28;20035;-68
2021/03/31 08:17:11;;;;;;;30.02;22.48;;;16.30;51.50;;;;;;5096723;28;20071;-68
2021/03/31 08:19:42;;;;;;;29.58;21.88;;;16.30;51.70;;;;;;5096404;28;20507;-68
2021/03/31 08:22:43;;;;;;;28.83;21.83;;;16.40;52.00;;;;;;5096757;28;20154;-68
2021/03/31 08:25:22;;;;;;;25.08;20.17;;;16.40;52.40;;;;;;5014289;28;20145;-67
2021/03/31 08:28:06;;;;;;;28.83;21.20;;;16.40;52.50;;;;;;5087388;28;20459;-69
2021/03/31 08:30:34;;;;;;;25.20;20.05;;;16.40;52.80;;;;;;5097128;28;20116;-68
2021/03/31 08:33:01;;;;;;;25.15;19.95;;;16.40;52.90;;;;;;5096520;28;20051;-68
2021/03/31 08:35:28;;;;;;;21.88;17.67;;;16.40;53.00;;;;;;5095960;28;20043;-68
2021/03/31 08:37:54;;;;;;;24.55;18.30;;;16.40;53.20;;;;;;5096853;28;20054;-69
2021/03/31 08:40:21;;;;;;;24.60;18.65;;;16.40;53.40;;;;;;5096295;28;20043;-68
2021/03/31 08:42:49;;;;;;;24.38;18.10;;;16.40;53.60;;;;;;5096323;28;20047;-69
2021/03/31 08:45:30;;;;;;;23.02;17.05;;;16.40;53.70;;;;;;5096257;28;20080;-68
2021/03/31 08:47:58;;;;;;;22.60;16.77;;;16.40;53.80;;;;;;5096210;28;20063;-68
2021/03/31 08:50:27;;;;;;;23.05;17.90;;;16.50;54.00;;;;;;5096613;28;20066;-68
2021/03/31 08:53:04;;;;;;;21.08;16.40;;;16.50;54.10;;;;;;5096394;28;20040;-68
2021/03/31 08:55:32;;;;;;;22.17;15.85;;;16.40;54.10;;;;;;5078321;28;20401;-69
2021/03/31 08:57:58;;;;;;;21.63;16.25;;;16.40;54.20;;;;;;5096120;28;20059;-68
2021/03/31 09:00:25;;;;;;;21.38;16.83;;;16.40;54.30;;;;;;5096244;28;20066;-68
2021/03/31 09:03:02;;;;;;;20.73;15.73;;;16.50;54.40;;;;;;5077949;28;20055;-68
2021/03/31 09:05:28;;;;;;;19.63;14.93;;;16.50;54.50;;;;;;5095823;28;20043;-68
2021/03/31 09:08:01;;;;;;;17.98;13.98;;;16.50;54.50;;;;;;5095744;28;20032;-69
2021/03/31 09:10:28;;;;;;;20.08;15.23;;;16.50;54.60;;;;;;5078037;28;20110;-68
2021/03/31 09:12:54;;;;;;;19.80;15.63;;;16.50;54.70;;;;;;5095816;28;20035;-68
2021/03/31 09:15:21;;;;;;;15.85;12.93;;;16.50;54.70;;;;;;5095630;28;20050;-68
2021/03/31 09:17:48;;;;;;;17.90;13.48;;;16.50;54.80;;;;;;5095686;28;20043;-68
2021/03/31 09:20:18;;;;;;;16.25;12.90;;;16.50;54.90;;;;;;5095734;28;20366;-68
2021/03/31 09:22:44;;;;;;;20.17;14.07;;;16.50;55.00;;;;;;5096029;28;20454;-68
2021/03/31 09:25:12;;;;;;;17.50;12.77;;;16.50;55.10;;;;;;5094934;28;20058;-68
2021/03/31 09:27:39;;;;;;;18.58;14.60;;;16.50;55.10;;;;;;5094710;28;20075;-68
2021/03/31 09:30:08;;;;;;;18.33;13.82;;;16.50;55.10;;;;;;5095328;28;20060;-68
2021/03/31 09:35:08;;;;;;;18.58;14.35;;;16.50;55.10;;;;;;5095278;28;20044;-68
2021/03/31 09:37:48;;;;;;;17.27;13.32;;;16.50;55.10;;;;;;5078241;28;20040;-69
2021/03/31 09:40:25;;;;;;;15.95;12.77;;;16.50;55.20;;;;;;5094962;28;20040;-68
2021/03/31 09:42:58;;;;;;;16.58;12.65;;;16.50;55.30;;;;;;5095312;28;20031;-68
2021/03/31 09:45:28;;;;;;;15.75;11.93;;;16.50;55.50;;;;;;5095184;28;20081;-69
2021/03/31 09:47:56;;;;;;;17.42;13.02;;;16.50;55.50;;;;;;5095162;28;20055;-68
2021/03/31 09:50:28;;;;;;;16.02;12.23;;;16.50;55.50;;;;;;5095026;28;20048;-68
2021/03/31 09:53:01;;;;;;;18.88;13.48;;;16.50;55.50;;;;;;5095722;28;20036;-68
2021/03/31 09:55:29;;;;;;;16.33;12.05;;;16.50;55.50;;;;;;5095705;28;20040;-68
2021/03/31 09:57:55;;;;;;;14.52;11.73;;;16.60;55.60;;;;;;5094991;28;20353;-69
2021/03/31 10:00:23;;;;;;;15.95;11.68;;;16.50;55.60;;;;;;5094648;28;20431;-68
2021/03/31 10:02:51;;;;;;;16.42;11.93;;;16.50;55.70;;;;;;5095516;28;20044;-68
2021/03/31 10:05:21;;;;;;;15.98;12.23;;;16.60;55.80;;;;;;5094953;28;20089;-69
2021/03/31 10:08:06;;;;;;;15.25;11.82;;;16.60;55.90;;;;;;5094872;28;20119;-68
2021/03/31 10:10:59;;;;;;;14.10;11.25;;;16.50;55.70;;;;;;5094818;28;20044;-68
2021/03/31 10:13:25;;;;;;;14.57;11.15;;;16.60;55.90;;;;;;5091790;28;20135;-69
2021/03/31 10:16:03;;;;;;;16.90;12.43;;;16.60;56.10;;;;;;5094651;28;20409;-68
2021/03/31 10:18:30;;;;;;;15.15;11.90;;;16.60;56.10;;;;;;5094636;28;20044;-69
2021/03/31 10:21:00;;;;;;;14.55;11.40;;;16.50;56.10;;;;;;5095356;28;20044;-68
2021/03/31 10:23:37;;;;;;;14.68;11.80;;;16.60;56.30;;;;;;5094872;28;20114;-69
2021/03/31 10:26:22;;;;;;;13.75;11.60;;;16.50;56.20;;;;;;5094681;28;20039;-68
2021/03/31 10:28:48;;;;;;;14.57;11.80;;;16.60;56.30;;;;;;5094557;28;20040;-69
2021/03/31 10:31:35;;;;;;;14.50;11.45;;;16.60;56.30;;;;;;5095119;28;20036;-68
2021/03/31 10:34:01;;;;;;;14.77;10.95;;;16.50;56.30;;;;;;5094581;28;20046;-69
2021/03/31 10:50:00;;;;;;;15.57;12.07;;;16.60;56.40;;;;;;5098539;28;20047;-68
2021/03/31 10:52:34;;;;;;;15.85;11.55;;;16.60;56.50;;;;;;5098609;28;20060;-69
2021/03/31 10:54:59;;;;;;;15.05;11.63;;;16.60;56.50;;;;;;5097868;28;20044;-68
2021/03/31 10:57:25;;;;;;;16.40;11.95;;;16.60;56.60;;;;;;5098540;28;20055;-69
2021/03/31 10:59:51;;;;;;;14.35;10.77;;;16.60;56.60;;;;;;5098383;28;20040;-69
2021/03/31 11:02:17;;;;;;;14.57;11.02;;;16.60;56.70;;;;;;5080513;28;20044;-69
2021/03/31 11:04:43;;;;;;;14.70;11.27;;;16.60;56.70;;;;;;5098468;28;20065;-69
2021/03/31 11:07:10;;;;;;;17.30;11.90;;;16.60;56.80;;;;;;5097989;28;20071;-69
2021/03/31 11:09:39;;;;;;;15.00;11.00;;;16.60;56.80;;;;;;5098200;28;20347;-69
2021/03/31 11:12:06;;;;;;;17.15;13.18;;;16.60;56.90;;;;;;5097588;28;20066;-68
2021/03/31 11:14:32;;;;;;;21.10;14.32;;;16.60;56.90;;;;;;5098002;28;20067;-67
2021/03/31 11:25:59;;;;;;;28.67;19.02;;;16.50;56.10;;;;;;5083738;28;20044;-70
2021/03/31 11:28:26;;;;;;;28.88;20.40;;;16.60;55.90;;;;;;5097563;28;20050;-72
2021/03/31 11:31:12;;;;;;;30.55;21.30;;;16.60;55.70;;;;;;5083385;28;20439;-70
2021/03/31 11:33:38;;;;;;;31.85;21.25;;;16.60;55.60;;;;;;5097805;28;20040;-69
2021/03/31 11:36:05;;;;;;;28.77;21.52;;;16.60;55.30;;;;;;5097666;28;20110;-70
2021/03/31 11:38:50;;;;;;;29.95;19.98;;;16.60;55.20;;;;;;5082649;28;20040;-70
2021/03/31 11:41:16;;;;;;;29.33;21.40;;;16.60;55.20;;;;;;5097899;28;20048;-70
2021/03/31 11:43:42;;;;;;;30.05;21.42;;;16.60;55.20;;;;;;5097236;28;20361;-69
2021/03/31 11:46:31;;;;;;;29.92;21.98;;;16.60;55.20;;;;;;5082106;28;20055;-70
2021/03/31 11:48:57;;;;;;;29.02;20.98;;;16.60;54.90;;;;;;5097261;28;20036;-69
2021/03/31 11:51:23;;;;;;;30.45;21.35;;;16.60;55.00;;;;;;5097132;28;20097;-69
2021/03/31 11:54:09;;;;;;;35.25;23.00;;;16.60;54.90;;;;;;5082699;28;20138;-70
2021/03/31 11:56:55;;;;;;;31.15;20.92;;;16.60;55.00;;;;;;5082442;28;20051;-69
2021/03/31 11:59:21;;;;;;;31.65;22.17;;;16.60;54.80;;;;;;5078796;28;20048;-69
2021/03/31 12:02:08;;;;;;;32.10;22.77;;;16.60;54.70;;;;;;5082140;28;20054;-69
2021/03/31 12:04:38;;;;;;;29.00;21.75;;;16.70;54.80;;;;;;5097427;28;20097;-69
2021/03/31 12:07:24;;;;;;;33.00;22.35;;;16.60;54.70;;;;;;5082172;28;20047;-69
2021/03/31 12:09:50;;;;;;;32.95;22.00;;;16.60;54.70;;;;;;5097121;28;20071;-70
2021/03/31 12:12:16;;;;;;;30.98;21.25;;;16.60;54.60;;;;;;5097423;28;20406;-70
2021/03/31 12:15:07;;;;;;;35.22;22.42;;;16.60;54.70;;;;;;5081487;28;20051;-70
2021/03/31 12:17:33;;;;;;;30.38;21.80;;;16.60;54.60;;;;;;5096984;28;20059;-69
2021/03/31 12:19:58;;;;;;;32.00;22.83;;;16.70;54.80;;;;;;5097044;28;20082;-69
2021/03/31 12:22:24;;;;;;;30.33;21.23;;;16.70;54.60;;;;;;5097131;28;20139;-70
2021/03/31 12:24:50;;;;;;;32.22;22.40;;;16.70;54.60;;;;;;5096648;28;20047;-70
2021/03/31 12:27:38;;;;;;;32.17;22.30;;;16.70;54.50;;;;;;5081823;28;20043;-69
2021/03/31 12:30:07;;;;;;;31.70;22.27;;;16.70;54.40;;;;;;5096989;28;20357;-69
2021/03/31 12:32:33;;;;;;;30.27;22.17;;;16.70;54.20;;;;;;5096629;28;20366;-69
2021/03/31 12:35:20;;;;;;;33.42;22.17;;;16.70;54.20;;;;;;5081814;28;20047;-69
2021/03/31 12:38:06;;;;;;;32.97;21.58;;;16.70;54.10;;;;;;5081737;28;20104;-70
2021/03/31 12:40:32;;;;;;;28.88;20.70;;;16.70;54.10;;;;;;5096224;28;20043;-70
2021/03/31 12:42:58;;;;;;;30.70;20.73;;;16.70;54.10;;;;;;5096945;28;20036;-69
2021/03/31 12:45:24;;;;;;;29.25;20.65;;;16.70;54.10;;;;;;5096292;28;20464;-69
2021/03/31 12:47:50;;;;;;;33.13;22.30;;;16.70;54.20;;;;;;5096691;28;20244;-69
2021/03/31 12:50:17;;;;;;;31.80;21.98;;;16.70;54.20;;;;;;5096723;28;20044;-69
2021/03/31 12:55:41;;;;;;;31.38;21.88;;;16.70;54.10;;;;;;5081582;28;20036;-69
2021/03/31 12:58:11;;;;;;;30.67;20.85;;;16.70;54.10;;;;;;5096215;28;20063;-70
2021/03/31 13:00:37;;;;;;;29.98;21.15;;;16.70;54.10;;;;;;5095857;28;20355;-70
2021/03/31 13:03:03;;;;;;;34.05;22.73;;;16.80;54.10;;;;;;5094944;28;20047;-70
2021/03/31 13:05:49;;;;;;;31.70;21.77;;;16.80;54.10;;;;;;5082234;28;20425;-70
2021/03/31 13:08:16;;;;;;;32.00;20.95;;;16.70;54.00;;;;;;5096638;28;20040;-71
2021/03/31 13:10:43;;;;;;;30.13;21.10;;;16.70;54.10;;;;;;5096371;28;20048;-70
2021/03/31 13:16:02;;;;;;;30.67;21.60;;;16.80;54.30;;;;;;5095938;28;20036;-71
2021/03/31 13:24:41;;;;;;;32.25;22.00;;;16.80;54.30;;;;;;5033876;28;20460;-69
2021/03/31 13:35:07;;;;;;;31.30;20.77;;;16.80;54.10;;;;;;5064248;28;20047;-70
2021/03/31 13:37:46;;;;;;;28.25;20.95;;;16.80;54.20;;;;;;5095315;28;20044;-70